sensor_id;sensor_type;location;lat;lon;timestamp;P1;durP1;ratioP1;P2;durP2;ratioP2
21354;SDS011;10835;50.148;19.760;2024-03-17T00:01:05;2.70;;;1.90;;
21354;SDS011;10835;50.148;19.760;2024-03-17T00:03:33;3.67;;;1.52;;
21354;SDS011;10835;50.148;19.760;2024-03-17T00:06:01;4.50;;;1.88;;
21354;SDS011;10835;50.148;19.760;2024-03-17T00:08:30;3.10;;;1.85;;
21354;SDS011;10835;50.148;19.760;2024-03-17T00:10:57;3.33;;;1.40;;
21354;SDS011;10835;50.148;19.760;2024-03-17T00:13:23;3.13;;;1.35;;
21354;SDS011;10835;50.148;19.760;2024-03-17T00:15:51;1.52;;;1.42;;
21354;SDS011;10835;50.148;19.760;2024-03-17T00:18:18;1.30;;;1.20;;
21354;SDS011;10835;50.148;19.760;2024-03-17T00:20:46;1.85;;;1.30;;
21354;SDS011;10835;50.148;19.760;2024-03-17T00:23:12;1.30;;;1.00;;
21354;SDS011;10835;50.148;19.760;2024-03-17T00:25:41;1.05;;;0.93;;
21354;SDS011;10835;50.148;19.760;2024-03-17T00:28:08;0.55;;;0.50;;
21354;SDS011;10835;50.148;19.760;2024-03-17T00:30:37;0.45;;;0.45;;
21354;SDS011;10835;50.148;19.760;2024-03-17T00:33:04;0.45;;;0.45;;
21354;SDS011;10835;50.148;19.760;2024-03-17T00:35:31;1.70;;;0.70;;
21354;SDS011;10835;50.148;19.760;2024-03-17T00:37:58;0.70;;;0.70;;
21354;SDS011;10835;50.148;19.760;2024-03-17T00:40:29;0.40;;;0.40;;
21354;SDS011;10835;50.148;19.760;2024-03-17T00:42:57;0.98;;;0.90;;
21354;SDS011;10835;50.148;19.760;2024-03-17T00:45:25;1.00;;;0.68;;
21354;SDS011;10835;50.148;19.760;2024-03-17T00:47:52;1.85;;;0.80;;
21354;SDS011;10835;50.148;19.760;2024-03-17T00:50:20;0.65;;;0.40;;
21354;SDS011;10835;50.148;19.760;2024-03-17T00:52:46;1.35;;;1.00;;
21354;SDS011;10835;50.148;19.760;2024-03-17T00:55:15;2.40;;;0.57;;
21354;SDS011;10835;50.148;19.760;2024-03-17T00:57:41;0.40;;;0.40;;
21354;SDS011;10835;50.148;19.760;2024-03-17T01:00:11;0.80;;;0.80;;
21354;SDS011;10835;50.148;19.760;2024-03-17T01:02:41;0.93;;;0.73;;
21354;SDS011;10835;50.148;19.760;2024-03-17T01:05:08;0.60;;;0.60;;
21354;SDS011;10835;50.148;19.760;2024-03-17T01:07:37;1.15;;;0.70;;
21354;SDS011;10835;50.148;19.760;2024-03-17T01:10:04;4.35;;;1.17;;
21354;SDS011;10835;50.148;19.760;2024-03-17T01:12:34;1.27;;;0.82;;
21354;SDS011;10835;50.148;19.760;2024-03-17T01:15:03;1.85;;;1.20;;
21354;SDS011;10835;50.148;19.760;2024-03-17T01:17:32;2.55;;;1.30;;
21354;SDS011;10835;50.148;19.760;2024-03-17T01:19:59;1.15;;;0.95;;
21354;SDS011;10835;50.148;19.760;2024-03-17T01:22:26;3.95;;;1.38;;
21354;SDS011;10835;50.148;19.760;2024-03-17T01:24:55;1.63;;;1.00;;
21354;SDS011;10835;50.148;19.760;2024-03-17T01:27:21;1.17;;;1.08;;
21354;SDS011;10835;50.148;19.760;2024-03-17T01:29:49;0.98;;;0.68;;
21354;SDS011;10835;50.148;19.760;2024-03-17T01:32:15;1.55;;;0.88;;
21354;SDS011;10835;50.148;19.760;2024-03-17T01:34:46;1.38;;;1.25;;
21354;SDS011;10835;50.148;19.760;2024-03-17T01:37:12;2.33;;;1.90;;
21354;SDS011;10835;50.148;19.760;2024-03-17T01:39:40;2.38;;;2.17;;
21354;SDS011;10835;50.148;19.760;2024-03-17T01:42:06;2.10;;;1.45;;
21354;SDS011;10835;50.148;19.760;2024-03-17T01:44:34;2.38;;;1.67;;
21354;SDS011;10835;50.148;19.760;2024-03-17T01:47:01;3.47;;;2.15;;
21354;SDS011;10835;50.148;19.760;2024-03-17T01:49:28;2.95;;;1.52;;
21354;SDS011;10835;50.148;19.760;2024-03-17T01:51:57;4.15;;;1.25;;
21354;SDS011;10835;50.148;19.760;2024-03-17T01:54:24;0.60;;;0.52;;
21354;SDS011;10835;50.148;19.760;2024-03-17T01:56:52;2.05;;;1.27;;
21354;SDS011;10835;50.148;19.760;2024-03-17T01:59:19;2.50;;;1.10;;
21354;SDS011;10835;50.148;19.760;2024-03-17T02:01:46;2.60;;;1.00;;
21354;SDS011;10835;50.148;19.760;2024-03-17T02:04:14;1.25;;;0.85;;
21354;SDS011;10835;50.148;19.760;2024-03-17T02:06:43;6.43;;;1.30;;
21354;SDS011;10835;50.148;19.760;2024-03-17T02:09:11;1.55;;;0.77;;
21354;SDS011;10835;50.148;19.760;2024-03-17T02:11:39;1.23;;;1.08;;
21354;SDS011;10835;50.148;19.760;2024-03-17T02:14:06;1.45;;;1.23;;
21354;SDS011;10835;50.148;19.760;2024-03-17T02:16:33;0.75;;;0.75;;
21354;SDS011;10835;50.148;19.760;2024-03-17T02:19:00;2.25;;;1.17;;
21354;SDS011;10835;50.148;19.760;2024-03-17T02:21:27;3.55;;;1.25;;
21354;SDS011;10835;50.148;19.760;2024-03-17T02:23:56;2.28;;;0.70;;
21354;SDS011;10835;50.148;19.760;2024-03-17T02:26:25;5.38;;;1.17;;
21354;SDS011;10835;50.148;19.760;2024-03-17T02:28:52;5.20;;;1.45;;
21354;SDS011;10835;50.148;19.760;2024-03-17T02:31:19;2.40;;;0.90;;
21354;SDS011;10835;50.148;19.760;2024-03-17T02:33:47;6.40;;;1.60;;
21354;SDS011;10835;50.148;19.760;2024-03-17T02:36:15;0.60;;;0.60;;
21354;SDS011;10835;50.148;19.760;2024-03-17T02:38:43;1.33;;;0.90;;
21354;SDS011;10835;50.148;19.760;2024-03-17T02:41:29;2.13;;;1.20;;
21354;SDS011;10835;50.148;19.760;2024-03-17T02:43:57;4.47;;;0.95;;
21354;SDS011;10835;50.148;19.760;2024-03-17T02:46:24;1.20;;;1.08;;
21354;SDS011;10835;50.148;19.760;2024-03-17T02:48:52;1.30;;;1.02;;
21354;SDS011;10835;50.148;19.760;2024-03-17T02:51:20;0.98;;;0.70;;
21354;SDS011;10835;50.148;19.760;2024-03-17T02:53:48;1.52;;;0.98;;
21354;SDS011;10835;50.148;19.760;2024-03-17T02:56:16;1.58;;;1.20;;
21354;SDS011;10835;50.148;19.760;2024-03-17T02:58:46;1.10;;;0.98;;
21354;SDS011;10835;50.148;19.760;2024-03-17T03:01:14;1.58;;;1.02;;
21354;SDS011;10835;50.148;19.760;2024-03-17T03:03:42;1.10;;;0.90;;
21354;SDS011;10835;50.148;19.760;2024-03-17T03:06:11;2.72;;;0.80;;
21354;SDS011;10835;50.148;19.760;2024-03-17T03:08:39;2.53;;;1.45;;
21354;SDS011;10835;50.148;19.760;2024-03-17T03:11:07;4.28;;;1.30;;
21354;SDS011;10835;50.148;19.760;2024-03-17T03:13:37;1.75;;;1.25;;
21354;SDS011;10835;50.148;19.760;2024-03-17T03:16:07;5.80;;;1.30;;
21354;SDS011;10835;50.148;19.760;2024-03-17T03:18:36;3.42;;;1.90;;
21354;SDS011;10835;50.148;19.760;2024-03-17T03:21:04;2.25;;;1.60;;
21354;SDS011;10835;50.148;19.760;2024-03-17T03:23:32;3.55;;;1.67;;
21354;SDS011;10835;50.148;19.760;2024-03-17T03:26:01;3.47;;;2.25;;
21354;SDS011;10835;50.148;19.760;2024-03-17T03:28:30;3.03;;;1.73;;
21354;SDS011;10835;50.148;19.760;2024-03-17T03:30:59;5.80;;;2.05;;
21354;SDS011;10835;50.148;19.760;2024-03-17T03:33:30;6.50;;;2.50;;
21354;SDS011;10835;50.148;19.760;2024-03-17T03:35:57;3.95;;;2.47;;
21354;SDS011;10835;50.148;19.760;2024-03-17T03:38:25;5.38;;;3.10;;
21354;SDS011;10835;50.148;19.760;2024-03-17T03:40:54;4.50;;;2.60;;
21354;SDS011;10835;50.148;19.760;2024-03-17T03:43:22;3.25;;;2.05;;
21354;SDS011;10835;50.148;19.760;2024-03-17T03:45:52;1.77;;;1.48;;
21354;SDS011;10835;50.148;19.760;2024-03-17T03:48:19;2.78;;;2.03;;
21354;SDS011;10835;50.148;19.760;2024-03-17T03:50:48;4.43;;;2.50;;
21354;SDS011;10835;50.148;19.760;2024-03-17T03:53:16;3.58;;;1.83;;
21354;SDS011;10835;50.148;19.760;2024-03-17T03:55:43;5.00;;;2.92;;
21354;SDS011;10835;50.148;19.760;2024-03-17T03:58:11;6.30;;;3.92;;
21354;SDS011;10835;50.148;19.760;2024-03-17T04:00:39;2.90;;;2.05;;
21354;SDS011;10835;50.148;19.760;2024-03-17T04:03:07;5.60;;;2.50;;
21354;SDS011;10835;50.148;19.760;2024-03-17T04:05:34;5.25;;;2.45;;
21354;SDS011;10835;50.148;19.760;2024-03-17T04:08:05;9.07;;;3.30;;
21354;SDS011;10835;50.148;19.760;2024-03-17T04:10:34;5.03;;;3.28;;
21354;SDS011;10835;50.148;19.760;2024-03-17T04:13:02;5.63;;;3.08;;
21354;SDS011;10835;50.148;19.760;2024-03-17T04:15:29;4.50;;;2.60;;
21354;SDS011;10835;50.148;19.760;2024-03-17T04:17:57;6.47;;;2.63;;
21354;SDS011;10835;50.148;19.760;2024-03-17T04:20:25;5.72;;;2.60;;
21354;SDS011;10835;50.148;19.760;2024-03-17T04:22:53;4.22;;;1.13;;
21354;SDS011;10835;50.148;19.760;2024-03-17T04:25:22;2.20;;;1.70;;
21354;SDS011;10835;50.148;19.760;2024-03-17T04:27:49;3.85;;;2.88;;
21354;SDS011;10835;50.148;19.760;2024-03-17T04:30:17;3.63;;;2.58;;
21354;SDS011;10835;50.148;19.760;2024-03-17T04:32:45;3.03;;;2.03;;
21354;SDS011;10835;50.148;19.760;2024-03-17T04:35:12;5.25;;;3.17;;
21354;SDS011;10835;50.148;19.760;2024-03-17T04:37:40;3.40;;;2.05;;
21354;SDS011;10835;50.148;19.760;2024-03-17T04:40:08;3.75;;;2.20;;
21354;SDS011;10835;50.148;19.760;2024-03-17T04:42:37;6.82;;;1.90;;
21354;SDS011;10835;50.148;19.760;2024-03-17T04:45:06;2.28;;;1.77;;
21354;SDS011;10835;50.148;19.760;2024-03-17T04:47:36;3.30;;;2.10;;
21354;SDS011;10835;50.148;19.760;2024-03-17T04:50:05;4.25;;;1.50;;
21354;SDS011;10835;50.148;19.760;2024-03-17T04:52:32;2.38;;;1.35;;
21354;SDS011;10835;50.148;19.760;2024-03-17T04:55:00;1.92;;;1.52;;
21354;SDS011;10835;50.148;19.760;2024-03-17T04:57:29;6.03;;;1.90;;
21354;SDS011;10835;50.148;19.760;2024-03-17T04:59:58;3.17;;;1.70;;
21354;SDS011;10835;50.148;19.760;2024-03-17T05:02:26;3.10;;;2.03;;
21354;SDS011;10835;50.148;19.760;2024-03-17T05:04:53;3.83;;;1.40;;
21354;SDS011;10835;50.148;19.760;2024-03-17T05:07:21;1.77;;;0.85;;
21354;SDS011;10835;50.148;19.760;2024-03-17T05:09:48;3.33;;;1.73;;
21354;SDS011;10835;50.148;19.760;2024-03-17T05:12:16;3.03;;;1.85;;
21354;SDS011;10835;50.148;19.760;2024-03-17T05:14:43;1.90;;;1.05;;
21354;SDS011;10835;50.148;19.760;2024-03-17T05:17:13;2.10;;;1.08;;
21354;SDS011;10835;50.148;19.760;2024-03-17T05:19:41;4.95;;;1.15;;
21354;SDS011;10835;50.148;19.760;2024-03-17T05:22:08;5.38;;;1.10;;
21354;SDS011;10835;50.148;19.760;2024-03-17T05:24:37;0.30;;;0.30;;
21354;SDS011;10835;50.148;19.760;2024-03-17T05:27:05;1.52;;;1.42;;
21354;SDS011;10835;50.148;19.760;2024-03-17T05:29:32;1.38;;;1.10;;
21354;SDS011;10835;50.148;19.760;2024-03-17T05:32:03;4.63;;;1.58;;
21354;SDS011;10835;50.148;19.760;2024-03-17T05:34:32;5.43;;;0.80;;
21354;SDS011;10835;50.148;19.760;2024-03-17T05:37:00;1.15;;;0.95;;
21354;SDS011;10835;50.148;19.760;2024-03-17T05:39:27;2.65;;;0.65;;
21354;SDS011;10835;50.148;19.760;2024-03-17T05:41:55;1.13;;;0.95;;
21354;SDS011;10835;50.148;19.760;2024-03-17T05:44:22;4.60;;;0.90;;
21354;SDS011;10835;50.148;19.760;2024-03-17T05:46:50;1.63;;;1.05;;
21354;SDS011;10835;50.148;19.760;2024-03-17T05:49:19;8.57;;;0.82;;
21354;SDS011;10835;50.148;19.760;2024-03-17T05:51:48;3.10;;;1.40;;
21354;SDS011;10835;50.148;19.760;2024-03-17T05:54:15;2.47;;;1.00;;
21354;SDS011;10835;50.148;19.760;2024-03-17T05:56:43;1.00;;;0.60;;
21354;SDS011;10835;50.148;19.760;2024-03-17T05:59:11;5.85;;;1.45;;
21354;SDS011;10835;50.148;19.760;2024-03-17T06:01:38;8.05;;;1.20;;
21354;SDS011;10835;50.148;19.760;2024-03-17T06:04:06;2.33;;;1.15;;
21354;SDS011;10835;50.148;19.760;2024-03-17T06:06:34;0.57;;;0.57;;
21354;SDS011;10835;50.148;19.760;2024-03-17T06:09:03;4.05;;;1.73;;
21354;SDS011;10835;50.148;19.760;2024-03-17T06:11:34;1.35;;;0.75;;
21354;SDS011;10835;50.148;19.760;2024-03-17T06:14:02;1.80;;;1.50;;
21354;SDS011;10835;50.148;19.760;2024-03-17T06:16:31;1.05;;;0.52;;
21354;SDS011;10835;50.148;19.760;2024-03-17T06:18:59;2.45;;;0.65;;
21354;SDS011;10835;50.148;19.760;2024-03-17T06:21:26;3.28;;;1.20;;
21354;SDS011;10835;50.148;19.760;2024-03-17T06:23:54;1.42;;;0.90;;
21354;SDS011;10835;50.148;19.760;2024-03-17T06:26:23;2.10;;;1.15;;
21354;SDS011;10835;50.148;19.760;2024-03-17T06:28:52;3.83;;;1.75;;
21354;SDS011;10835;50.148;19.760;2024-03-17T06:31:19;8.48;;;1.80;;
21354;SDS011;10835;50.148;19.760;2024-03-17T06:33:48;2.10;;;1.05;;
21354;SDS011;10835;50.148;19.760;2024-03-17T06:36:15;3.22;;;1.02;;
21354;SDS011;10835;50.148;19.760;2024-03-17T06:38:43;1.98;;;1.05;;
21354;SDS011;10835;50.148;19.760;2024-03-17T06:41:11;2.80;;;1.25;;
21354;SDS011;10835;50.148;19.760;2024-03-17T06:43:42;4.88;;;2.08;;
21354;SDS011;10835;50.148;19.760;2024-03-17T06:46:10;2.65;;;1.77;;
21354;SDS011;10835;50.148;19.760;2024-03-17T06:48:37;1.40;;;1.30;;
21354;SDS011;10835;50.148;19.760;2024-03-17T06:51:05;2.92;;;1.13;;
21354;SDS011;10835;50.148;19.760;2024-03-17T06:53:32;1.85;;;1.20;;
21354;SDS011;10835;50.148;19.760;2024-03-17T06:56:00;4.63;;;2.55;;
21354;SDS011;10835;50.148;19.760;2024-03-17T06:58:27;1.15;;;1.10;;
21354;SDS011;10835;50.148;19.760;2024-03-17T07:00:57;1.27;;;1.20;;
21354;SDS011;10835;50.148;19.760;2024-03-17T07:03:26;2.58;;;2.03;;
21354;SDS011;10835;50.148;19.760;2024-03-17T07:05:56;1.98;;;1.38;;
21354;SDS011;10835;50.148;19.760;2024-03-17T07:08:24;7.55;;;2.00;;
21354;SDS011;10835;50.148;19.760;2024-03-17T07:10:59;5.03;;;0.98;;
21354;SDS011;10835;50.148;19.760;2024-03-17T07:13:29;4.28;;;2.38;;
21354;SDS011;10835;50.148;19.760;2024-03-17T07:15:59;0.65;;;0.65;;
21354;SDS011;10835;50.148;19.760;2024-03-17T07:18:27;5.18;;;2.20;;
21354;SDS011;10835;50.148;19.760;2024-03-17T07:20:58;6.72;;;2.03;;
21354;SDS011;10835;50.148;19.760;2024-03-17T07:23:26;2.60;;;1.85;;
21354;SDS011;10835;50.148;19.760;2024-03-17T07:25:54;2.22;;;1.98;;
21354;SDS011;10835;50.148;19.760;2024-03-17T07:28:22;5.97;;;2.92;;
21354;SDS011;10835;50.148;19.760;2024-03-17T07:30:50;1.85;;;1.50;;
21354;SDS011;10835;50.148;19.760;2024-03-17T07:33:20;1.52;;;1.42;;
21354;SDS011;10835;50.148;19.760;2024-03-17T07:35:48;1.38;;;1.20;;
21354;SDS011;10835;50.148;19.760;2024-03-17T07:38:17;6.20;;;2.33;;
21354;SDS011;10835;50.148;19.760;2024-03-17T07:40:45;2.10;;;0.73;;
21354;SDS011;10835;50.148;19.760;2024-03-17T07:43:24;1.85;;;0.93;;
21354;SDS011;10835;50.148;19.760;2024-03-17T07:45:58;2.53;;;0.68;;
21354;SDS011;10835;50.148;19.760;2024-03-17T07:48:29;1.52;;;0.85;;
21354;SDS011;10835;50.148;19.760;2024-03-17T07:50:57;1.35;;;1.20;;
21354;SDS011;10835;50.148;19.760;2024-03-17T07:53:26;3.67;;;0.77;;
21354;SDS011;10835;50.148;19.760;2024-03-17T07:55:57;0.73;;;0.60;;
21354;SDS011;10835;50.148;19.760;2024-03-17T07:58:25;3.53;;;1.85;;
21354;SDS011;10835;50.148;19.760;2024-03-17T08:00:56;2.83;;;1.42;;
21354;SDS011;10835;50.148;19.760;2024-03-17T08:03:25;1.83;;;1.05;;
21354;SDS011;10835;50.148;19.760;2024-03-17T08:05:54;2.20;;;1.17;;
21354;SDS011;10835;50.148;19.760;2024-03-17T08:08:22;0.88;;;0.88;;
21354;SDS011;10835;50.148;19.760;2024-03-17T08:10:50;3.85;;;1.30;;
21354;SDS011;10835;50.148;19.760;2024-03-17T08:13:18;3.70;;;1.40;;
21354;SDS011;10835;50.148;19.760;2024-03-17T08:15:46;1.13;;;1.05;;
21354;SDS011;10835;50.148;19.760;2024-03-17T08:18:22;1.25;;;1.00;;
21354;SDS011;10835;50.148;19.760;2024-03-17T08:20:50;1.10;;;0.98;;
21354;SDS011;10835;50.148;19.760;2024-03-17T08:23:20;1.45;;;1.10;;
21354;SDS011;10835;50.148;19.760;2024-03-17T08:25:51;1.73;;;1.10;;
21354;SDS011;10835;50.148;19.760;2024-03-17T08:28:19;3.10;;;1.33;;
21354;SDS011;10835;50.148;19.760;2024-03-17T08:30:51;1.48;;;0.93;;
21354;SDS011;10835;50.148;19.760;2024-03-17T08:33:19;4.07;;;1.10;;
21354;SDS011;10835;50.148;19.760;2024-03-17T08:35:54;2.63;;;1.77;;
21354;SDS011;10835;50.148;19.760;2024-03-17T08:38:25;1.73;;;1.50;;
21354;SDS011;10835;50.148;19.760;2024-03-17T08:40:53;2.22;;;1.48;;
21354;SDS011;10835;50.148;19.760;2024-03-17T08:43:22;0.77;;;0.77;;
21354;SDS011;10835;50.148;19.760;2024-03-17T08:45:54;1.27;;;0.80;;
21354;SDS011;10835;50.148;19.760;2024-03-17T08:48:24;3.53;;;0.95;;
21354;SDS011;10835;50.148;19.760;2024-03-17T08:50:52;1.27;;;0.95;;
21354;SDS011;10835;50.148;19.760;2024-03-17T08:53:20;2.60;;;1.73;;
21354;SDS011;10835;50.148;19.760;2024-03-17T08:55:49;6.00;;;1.48;;
21354;SDS011;10835;50.148;19.760;2024-03-17T08:58:17;1.15;;;0.95;;
21354;SDS011;10835;50.148;19.760;2024-03-17T09:00:45;0.98;;;0.95;;
21354;SDS011;10835;50.148;19.760;2024-03-17T09:03:12;1.55;;;1.45;;
21354;SDS011;10835;50.148;19.760;2024-03-17T09:05:41;2.55;;;1.50;;
21354;SDS011;10835;50.148;19.760;2024-03-17T09:08:10;4.20;;;1.65;;
21354;SDS011;10835;50.148;19.760;2024-03-17T09:10:43;3.75;;;1.23;;
21354;SDS011;10835;50.148;19.760;2024-03-17T09:13:13;1.85;;;0.98;;
21354;SDS011;10835;50.148;19.760;2024-03-17T09:15:49;1.65;;;0.75;;
21354;SDS011;10835;50.148;19.760;2024-03-17T09:18:17;3.20;;;0.98;;
21354;SDS011;10835;50.148;19.760;2024-03-17T09:20:44;3.70;;;1.48;;
21354;SDS011;10835;50.148;19.760;2024-03-17T09:23:12;4.63;;;1.58;;
21354;SDS011;10835;50.148;19.760;2024-03-17T09:25:40;1.35;;;1.00;;
21354;SDS011;10835;50.148;19.760;2024-03-17T09:28:08;5.50;;;1.73;;
21354;SDS011;10835;50.148;19.760;2024-03-17T09:30:38;1.02;;;0.93;;
21354;SDS011;10835;50.148;19.760;2024-03-17T09:33:07;2.28;;;1.52;;
21354;SDS011;10835;50.148;19.760;2024-03-17T09:35:35;2.42;;;1.67;;
21354;SDS011;10835;50.148;19.760;2024-03-17T09:38:02;1.70;;;1.58;;
21354;SDS011;10835;50.148;19.760;2024-03-17T09:40:30;3.58;;;1.30;;
21354;SDS011;10835;50.148;19.760;2024-03-17T09:42:57;1.58;;;0.68;;
21354;SDS011;10835;50.148;19.760;2024-03-17T09:45:25;6.05;;;1.88;;
21354;SDS011;10835;50.148;19.760;2024-03-17T09:47:56;1.95;;;1.23;;
21354;SDS011;10835;50.148;19.760;2024-03-17T09:50:24;1.80;;;1.08;;
21354;SDS011;10835;50.148;19.760;2024-03-17T09:52:53;1.45;;;1.30;;
21354;SDS011;10835;50.148;19.760;2024-03-17T09:55:21;3.50;;;1.75;;
21354;SDS011;10835;50.148;19.760;2024-03-17T09:57:48;0.80;;;0.77;;
21354;SDS011;10835;50.148;19.760;2024-03-17T10:00:16;1.30;;;0.82;;
21354;SDS011;10835;50.148;19.760;2024-03-17T10:02:44;2.72;;;1.05;;
21354;SDS011;10835;50.148;19.760;2024-03-17T10:05:21;4.45;;;1.50;;
21354;SDS011;10835;50.148;19.760;2024-03-17T10:07:50;2.17;;;1.02;;
21354;SDS011;10835;50.148;19.760;2024-03-17T10:10:20;2.25;;;1.45;;
21354;SDS011;10835;50.148;19.760;2024-03-17T10:12:49;4.63;;;1.67;;
21354;SDS011;10835;50.148;19.760;2024-03-17T10:15:17;1.38;;;1.15;;
21354;SDS011;10835;50.148;19.760;2024-03-17T10:17:46;3.78;;;0.88;;
21354;SDS011;10835;50.148;19.760;2024-03-17T10:20:16;2.42;;;1.20;;
21354;SDS011;10835;50.148;19.760;2024-03-17T10:23:00;1.08;;;0.98;;
21354;SDS011;10835;50.148;19.760;2024-03-17T10:25:30;1.13;;;0.80;;
21354;SDS011;10835;50.148;19.760;2024-03-17T10:27:58;1.50;;;0.65;;
21354;SDS011;10835;50.148;19.760;2024-03-17T10:30:27;1.55;;;1.13;;
21354;SDS011;10835;50.148;19.760;2024-03-17T10:32:56;4.38;;;1.40;;
21354;SDS011;10835;50.148;19.760;2024-03-17T10:35:27;1.23;;;0.70;;
21354;SDS011;10835;50.148;19.760;2024-03-17T10:37:57;3.33;;;0.65;;
21354;SDS011;10835;50.148;19.760;2024-03-17T10:40:27;1.05;;;0.95;;
21354;SDS011;10835;50.148;19.760;2024-03-17T10:42:56;2.45;;;1.23;;
21354;SDS011;10835;50.148;19.760;2024-03-17T10:45:25;0.95;;;0.80;;
21354;SDS011;10835;50.148;19.760;2024-03-17T10:47:56;1.25;;;1.10;;
21354;SDS011;10835;50.148;19.760;2024-03-17T10:50:29;4.38;;;1.38;;
21354;SDS011;10835;50.148;19.760;2024-03-17T10:53:01;1.20;;;1.10;;
21354;SDS011;10835;50.148;19.760;2024-03-17T10:55:31;0.77;;;0.77;;
21354;SDS011;10835;50.148;19.760;2024-03-17T10:58:03;1.50;;;0.55;;
21354;SDS011;10835;50.148;19.760;2024-03-17T11:00:34;2.05;;;1.23;;
21354;SDS011;10835;50.148;19.760;2024-03-17T11:03:03;5.63;;;0.93;;
21354;SDS011;10835;50.148;19.760;2024-03-17T11:05:37;5.70;;;0.85;;
21354;SDS011;10835;50.148;19.760;2024-03-17T11:08:06;2.78;;;1.35;;
21354;SDS011;10835;50.148;19.760;2024-03-17T11:10:48;0.47;;;0.47;;
21354;SDS011;10835;50.148;19.760;2024-03-17T11:13:22;2.70;;;0.68;;
21354;SDS011;10835;50.148;19.760;2024-03-17T11:15:50;1.52;;;0.90;;
21354;SDS011;10835;50.148;19.760;2024-03-17T11:18:29;1.88;;;0.95;;
21354;SDS011;10835;50.148;19.760;2024-03-17T11:21:05;0.88;;;0.82;;
21354;SDS011;10835;50.148;19.760;2024-03-17T11:23:37;3.40;;;1.30;;
21354;SDS011;10835;50.148;19.760;2024-03-17T11:26:05;1.67;;;0.90;;
21354;SDS011;10835;50.148;19.760;2024-03-17T11:28:47;1.00;;;0.90;;
21354;SDS011;10835;50.148;19.760;2024-03-17T11:31:36;1.98;;;1.13;;
21354;SDS011;10835;50.148;19.760;2024-03-17T11:43:03;1.17;;;0.90;;
21354;SDS011;10835;50.148;19.760;2024-03-17T11:45:32;3.70;;;1.23;;
21354;SDS011;10835;50.148;19.760;2024-03-17T11:47:59;2.53;;;0.85;;
21354;SDS011;10835;50.148;19.760;2024-03-17T11:50:26;2.25;;;1.60;;
21354;SDS011;10835;50.148;19.760;2024-03-17T11:52:59;2.85;;;1.13;;
21354;SDS011;10835;50.148;19.760;2024-03-17T11:55:28;3.17;;;1.27;;
21354;SDS011;10835;50.148;19.760;2024-03-17T11:57:55;1.75;;;0.90;;
21354;SDS011;10835;50.148;19.760;2024-03-17T12:00:24;1.10;;;1.00;;
21354;SDS011;10835;50.148;19.760;2024-03-17T12:02:51;0.77;;;0.77;;
21354;SDS011;10835;50.148;19.760;2024-03-17T12:05:19;2.15;;;0.95;;
21354;SDS011;10835;50.148;19.760;2024-03-17T12:07:47;3.38;;;1.50;;
21354;SDS011;10835;50.148;19.760;2024-03-17T12:10:15;5.05;;;1.33;;
21354;SDS011;10835;50.148;19.760;2024-03-17T12:12:46;2.60;;;1.10;;
21354;SDS011;10835;50.148;19.760;2024-03-17T12:15:18;1.17;;;0.60;;
21354;SDS011;10835;50.148;19.760;2024-03-17T12:17:53;0.88;;;0.63;;
21354;SDS011;10835;50.148;19.760;2024-03-17T12:20:20;3.15;;;1.23;;
21354;SDS011;10835;50.148;19.760;2024-03-17T12:22:48;1.67;;;1.25;;
21354;SDS011;10835;50.148;19.760;2024-03-17T12:25:17;3.53;;;1.30;;
21354;SDS011;10835;50.148;19.760;2024-03-17T12:27:46;0.68;;;0.68;;
21354;SDS011;10835;50.148;19.760;2024-03-17T12:30:14;2.92;;;1.00;;
21354;SDS011;10835;50.148;19.760;2024-03-17T12:32:43;0.70;;;0.70;;
21354;SDS011;10835;50.148;19.760;2024-03-17T12:35:13;1.88;;;0.88;;
21354;SDS011;10835;50.148;19.760;2024-03-17T12:37:43;4.93;;;1.27;;
21354;SDS011;10835;50.148;19.760;2024-03-17T12:40:17;5.60;;;1.63;;
21354;SDS011;10835;50.148;19.760;2024-03-17T12:42:49;3.70;;;0.80;;
21354;SDS011;10835;50.148;19.760;2024-03-17T12:45:20;1.38;;;1.27;;
21354;SDS011;10835;50.148;19.760;2024-03-17T12:47:48;0.95;;;0.52;;
21354;SDS011;10835;50.148;19.760;2024-03-17T12:50:18;2.05;;;1.00;;
21354;SDS011;10835;50.148;19.760;2024-03-17T12:52:52;0.60;;;0.50;;
21354;SDS011;10835;50.148;19.760;2024-03-17T12:55:19;2.28;;;1.05;;
21354;SDS011;10835;50.148;19.760;2024-03-17T12:58:05;2.30;;;1.27;;
21354;SDS011;10835;50.148;19.760;2024-03-17T13:00:56;1.50;;;0.90;;
21354;SDS011;10835;50.148;19.760;2024-03-17T13:03:25;0.50;;;0.50;;
21354;SDS011;10835;50.148;19.760;2024-03-17T13:05:55;1.65;;;0.93;;
21354;SDS011;10835;50.148;19.760;2024-03-17T13:08:23;2.20;;;0.85;;
21354;SDS011;10835;50.148;19.760;2024-03-17T13:10:50;0.70;;;0.70;;
21354;SDS011;10835;50.148;19.760;2024-03-17T13:13:18;1.95;;;0.75;;
21354;SDS011;10835;50.148;19.760;2024-03-17T13:15:45;1.98;;;0.98;;
21354;SDS011;10835;50.148;19.760;2024-03-17T13:18:15;1.33;;;1.10;;
21354;SDS011;10835;50.148;19.760;2024-03-17T13:20:45;1.98;;;0.95;;
21354;SDS011;10835;50.148;19.760;2024-03-17T13:23:16;1.83;;;0.80;;
21354;SDS011;10835;50.148;19.760;2024-03-17T13:25:44;3.42;;;1.33;;
21354;SDS011;10835;50.148;19.760;2024-03-17T13:28:11;1.73;;;0.73;;
21354;SDS011;10835;50.148;19.760;2024-03-17T13:30:39;0.73;;;0.73;;
21354;SDS011;10835;50.148;19.760;2024-03-17T13:33:07;1.75;;;0.95;;
21354;SDS011;10835;50.148;19.760;2024-03-17T13:35:35;1.08;;;0.95;;
21354;SDS011;10835;50.148;19.760;2024-03-17T13:38:04;1.52;;;0.98;;
21354;SDS011;10835;50.148;19.760;2024-03-17T13:40:34;3.20;;;1.23;;
21354;SDS011;10835;50.148;19.760;2024-03-17T13:43:04;1.80;;;1.10;;
21354;SDS011;10835;50.148;19.760;2024-03-17T13:45:35;1.27;;;0.85;;
21354;SDS011;10835;50.148;19.760;2024-03-17T13:48:06;4.80;;;1.40;;
21354;SDS011;10835;50.148;19.760;2024-03-17T13:50:37;3.45;;;1.45;;
21354;SDS011;10835;50.148;19.760;2024-03-17T13:53:07;0.50;;;0.45;;
21354;SDS011;10835;50.148;19.760;2024-03-17T13:55:37;2.80;;;1.48;;
21354;SDS011;10835;50.148;19.760;2024-03-17T13:58:05;3.45;;;1.23;;
21354;SDS011;10835;50.148;19.760;2024-03-17T14:00:32;2.33;;;1.25;;
21354;SDS011;10835;50.148;19.760;2024-03-17T14:03:03;1.23;;;0.82;;
21354;SDS011;10835;50.148;19.760;2024-03-17T14:05:31;3.03;;;1.08;;
21354;SDS011;10835;50.148;19.760;2024-03-17T14:08:00;2.42;;;0.90;;
21354;SDS011;10835;50.148;19.760;2024-03-17T14:10:30;0.80;;;0.77;;
21354;SDS011;10835;50.148;19.760;2024-03-17T14:12:59;0.90;;;0.50;;
21354;SDS011;10835;50.148;19.760;2024-03-17T14:15:26;0.65;;;0.65;;
21354;SDS011;10835;50.148;19.760;2024-03-17T14:17:53;0.95;;;0.80;;
21354;SDS011;10835;50.148;19.760;2024-03-17T14:20:21;1.20;;;0.90;;
21354;SDS011;10835;50.148;19.760;2024-03-17T14:22:49;1.38;;;0.88;;
21354;SDS011;10835;50.148;19.760;2024-03-17T14:25:19;0.70;;;0.70;;
21354;SDS011;10835;50.148;19.760;2024-03-17T14:27:48;0.75;;;0.75;;
21354;SDS011;10835;50.148;19.760;2024-03-17T14:30:17;0.30;;;0.30;;
21354;SDS011;10835;50.148;19.760;2024-03-17T14:32:46;4.10;;;0.85;;
21354;SDS011;10835;50.148;19.760;2024-03-17T14:35:15;6.63;;;1.35;;
21354;SDS011;10835;50.148;19.760;2024-03-17T14:37:48;1.63;;;0.93;;
21354;SDS011;10835;50.148;19.760;2024-03-17T14:40:18;3.65;;;0.80;;
21354;SDS011;10835;50.148;19.760;2024-03-17T14:42:50;4.80;;;1.00;;
21354;SDS011;10835;50.148;19.760;2024-03-17T14:45:19;6.13;;;1.35;;
21354;SDS011;10835;50.148;19.760;2024-03-17T14:47:49;0.82;;;0.80;;
21354;SDS011;10835;50.148;19.760;2024-03-17T14:50:17;0.82;;;0.82;;
21354;SDS011;10835;50.148;19.760;2024-03-17T14:52:45;1.38;;;0.60;;